Time;durP1;ratioP1;P1;durP2;ratioP2;P2;SDS_P1;SDS_P2;PMS_P1;PMS_P2;Temp;Humidity;BMP_temperature;BMP_pressure;BME280_temperature;BME280_humidity;BME280_pressure;Samples;Min_cycle;Max_cycle;Signal;HPM_P1;HPM_P2
2022/03/25 00:01:39;;;;;;;;;;;;;;;6.75;55.80;100772.70;1776156;79;20217;-62
2022/03/25 00:04:46;;;;;;;;;;;;;;;6.73;56.13;100767.90;1796903;80;20221;-61
2022/03/25 00:07:51;;;;;;;;;;;;;;;6.60;56.07;100775.47;1797116;79;20253;-62
2022/03/25 00:10:58;;;;;;;;;;;;;;;6.53;56.34;100774.33;1797105;79;20224;-62
2022/03/25 00:14:03;;;;;;;;;;;;;;;6.52;56.40;100772.59;1797071;79;20289;-61
2022/03/25 00:17:09;;;;;;;;;;;;;;;6.49;56.47;100773.36;1797018;79;20236;-62
2022/03/25 00:20:17;;;;;;;;;;;;;;;6.42;56.53;100773.58;1796969;80;20329;-62
2022/03/25 00:23:23;;;;;;;;;;;;;;;6.37;56.69;100778.58;1800029;80;20210;-62
2022/03/25 00:26:29;;;;;;;;;;;;;;;6.34;56.92;100772.06;1796891;80;20182;-61
2022/03/25 00:29:33;;;;;;;;;;;;;;;6.28;57.00;100775.34;1779034;79;20201;-61
2022/03/25 00:32:37;;;;;;;;;;;;;;;6.26;57.12;100774.12;1796986;79;20519;-61
2022/03/25 00:35:44;;;;;;;;;;;;;;;6.25;57.27;100780.53;1796905;80;20202;-60
2022/03/25 00:38:48;;;;;;;;;;;;;;;6.23;57.39;100785.77;1796813;80;20194;-61
2022/03/25 00:41:56;;;;;;;;;;;;;;;6.15;57.43;100781.52;1797046;80;20229;-61
2022/03/25 00:45:05;;;;;;;;;;;;;;;6.08;57.50;100778.48;1797018;80;20201;-61
2022/03/25 00:48:12;;;;;;;;;;;;;;;6.00;57.69;100789.18;1796881;80;20197;-60
2022/03/25 00:51:18;;;;;;;;;;;;;;;5.91;57.94;100788.12;1780494;79;20237;-60
2022/03/25 00:54:22;;;;;;;;;;;;;;;5.87;58.29;100788.55;1796922;80;20233;-60
2022/03/25 00:57:27;;;;;;;;;;;;;;;5.81;58.57;100793.13;1796902;80;20210;-61
2022/03/25 01:00:33;;;;;;;;;;;;;;;5.71;58.68;100792.21;1796795;80;20190;-60
2022/03/25 01:03:39;;;;;;;;;;;;;;;5.62;58.96;100791.67;1796919;80;20178;-61
2022/03/25 01:06:46;;;;;;;;;;;;;;;5.54;59.14;100791.48;1797048;79;20282;-60
2022/03/25 01:09:52;;;;;;;;;;;;;;;5.44;59.40;100797.38;1796668;80;20221;-61
2022/03/25 01:12:57;;;;;;;;;;;;;;;5.34;59.66;100808.16;1779054;80;20183;-60
2022/03/25 01:16:02;;;;;;;;;;;;;;;5.29;59.77;100810.89;1797291;79;20186;-60
2022/03/25 01:19:12;;;;;;;;;;;;;;;5.23;59.88;100814.14;1796868;80;20198;-62
2022/03/25 01:22:18;;;;;;;;;;;;;;;5.16;60.08;100817.00;1796962;80;20269;-62
2022/03/25 01:25:25;;;;;;;;;;;;;;;5.07;60.16;100817.31;1795506;79;20229;-61
2022/03/25 01:28:34;;;;;;;;;;;;;;;4.99;60.35;100821.16;1796893;79;20190;-61
2022/03/25 01:31:38;;;;;;;;;;;;;;;4.91;60.48;100818.72;1797612;79;20261;-60
2022/03/25 01:34:49;;;;;;;;;;;;;;;4.78;60.74;100826.16;1823443;78;20543;-61
2022/03/25 01:37:54;;;;;;;;;;;;;;;4.68;61.00;100826.06;1834958;78;20239;-61
2022/03/25 01:41:03;;;;;;;;;;;;;;;4.55;61.17;100826.22;1775748;81;20200;-61
2022/03/25 01:44:11;;;;;;;;;;;;;;;4.47;61.58;100828.70;1776009;81;20222;-61
2022/03/25 01:47:15;;;;;;;;;;;;;;;4.39;61.81;100830.34;1775950;81;20250;-61
2022/03/25 01:50:29;;;;;;;;;;;;;;;4.33;62.20;100830.34;1775878;81;20313;-62
2022/03/25 01:53:35;;;;;;;;;;;;;;;4.26;62.40;100837.74;1776084;81;20408;-61
2022/03/25 01:56:40;;;;;;;;;;;;;;;4.22;62.68;100839.84;1775752;81;20518;-60
2022/03/25 01:59:44;;;;;;;;;;;;;;;4.20;62.79;100844.51;1775983;81;20195;-61
2022/03/25 02:02:50;;;;;;;;;;;;;;;4.19;62.97;100843.28;1775903;81;20191;-61
2022/03/25 02:05:57;;;;;;;;;;;;;;;4.13;63.07;100849.20;1775980;81;20609;-62
2022/03/25 02:09:01;;;;;;;;;;;;;;;4.06;63.06;100849.34;1757807;81;20198;-61
2022/03/25 02:12:07;;;;;;;;;;;;;;;3.99;63.11;100855.73;1775928;80;20258;-61
2022/03/25 02:15:12;;;;;;;;;;;;;;;3.89;63.00;100857.92;1758122;81;20199;-61
2022/03/25 02:18:21;;;;;;;;;;;;;;;3.78;63.04;100857.91;1764111;79;20215;-61
2022/03/25 02:21:26;;;;;;;;;;;;;;;3.67;63.41;100860.61;1807701;79;20255;-62
2022/03/25 02:24:30;;;;;;;;;;;;;;;3.61;63.92;100863.32;1807868;79;20200;-62
2022/03/25 02:27:36;;;;;;;;;;;;;;;3.56;64.02;100865.52;1785946;79;20250;-62
2022/03/25 02:30:43;;;;;;;;;;;;;;;3.48;64.22;100863.91;1790103;79;20179;-62
2022/03/25 02:33:48;;;;;;;;;;;;;;;3.42;64.49;100864.38;1775605;81;20246;-60
2022/03/25 02:36:53;;;;;;;;;;;;;;;3.36;64.88;100866.22;1775479;81;20254;-62
2022/03/25 02:39:54;;;;;;;;;;;;;;;3.34;65.25;100878.13;1775557;81;20521;-62
2022/03/25 02:42:59;;;;;;;;;;;;;;;3.32;65.49;100878.23;1775365;80;20202;-62
2022/03/25 02:46:05;;;;;;;;;;;;;;;3.27;65.51;100881.78;1775427;81;20560;-61
2022/03/25 02:49:09;;;;;;;;;;;;;;;3.22;65.75;100881.27;1775207;81;20219;-60
2022/03/25 02:52:15;;;;;;;;;;;;;;;3.19;65.80;100886.91;1775996;81;20203;-61
2022/03/25 02:55:21;;;;;;;;;;;;;;;3.13;65.79;100889.22;1775992;81;20199;-61
2022/03/25 02:58:26;;;;;;;;;;;;;;;3.08;65.99;100899.91;1776074;81;20519;-61
2022/03/25 03:01:33;;;;;;;;;;;;;;;3.04;66.20;100905.16;1775631;81;20246;-60
2022/03/25 03:04:41;;;;;;;;;;;;;;;3.01;66.33;100907.25;1775937;81;20191;-61
2022/03/25 03:07:45;;;;;;;;;;;;;;;2.99;66.56;100906.50;1775985;81;20187;-61
2022/03/25 03:10:49;;;;;;;;;;;;;;;2.95;66.66;100905.86;1775965;81;20234;-61
2022/03/25 03:13:59;;;;;;;;;;;;;;;2.93;66.88;100908.32;1776083;81;20226;-61
2022/03/25 03:17:04;;;;;;;;;;;;;;;2.93;67.28;100906.97;1758457;80;20186;-61
2022/03/25 03:20:11;;;;;;;;;;;;;;;2.90;67.51;100911.25;1775922;80;20246;-61
2022/03/25 03:23:17;;;;;;;;;;;;;;;2.92;67.84;100916.03;1775983;80;20214;-60
2022/03/25 03:26:21;;;;;;;;;;;;;;;2.94;67.87;100908.68;1776042;81;20205;-60
2022/03/25 03:29:26;;;;;;;;;;;;;;;2.96;67.92;100914.84;1776290;80;20199;-61
2022/03/25 03:32:33;;;;;;;;;;;;;;;2.96;67.88;100913.02;1776106;80;20194;-60
2022/03/25 03:35:40;;;;;;;;;;;;;;;2.95;67.90;100913.09;1776186;80;20238;-60
2022/03/25 03:38:44;;;;;;;;;;;;;;;2.92;67.91;100914.20;1776051;80;20214;-62
2022/03/25 03:41:48;;;;;;;;;;;;;;;2.90;68.14;100911.25;1776049;80;20202;-59
2022/03/25 03:44:52;;;;;;;;;;;;;;;2.90;68.38;100916.66;1776108;80;20182;-60
2022/03/25 03:47:57;;;;;;;;;;;;;;;2.85;68.44;100916.14;1776071;80;20202;-60
2022/03/25 03:51:02;;;;;;;;;;;;;;;2.78;68.61;100915.73;1776040;80;20226;-60
2022/03/25 03:54:08;;;;;;;;;;;;;;;2.73;68.83;100919.25;1776648;80;20262;-59
2022/03/25 03:57:13;;;;;;;;;;;;;;;2.72;69.01;100927.00;1776133;80;20218;-60
2022/03/25 04:00:20;;;;;;;;;;;;;;;2.65;69.16;100931.59;1776117;80;20179;-60
2022/03/25 04:03:26;;;;;;;;;;;;;;;2.63;69.31;100932.22;1775969;80;20210;-60
2022/03/25 04:06:32;;;;;;;;;;;;;;;2.63;69.42;100938.45;1776116;80;20262;-60
2022/03/25 04:09:36;;;;;;;;;;;;;;;2.67;69.54;100934.58;1776238;80;20190;-59
2022/03/25 04:12:41;;;;;;;;;;;;;;;2.64;69.48;100937.98;1776280;80;20230;-62
2022/03/25 04:15:45;;;;;;;;;;;;;;;2.56;69.74;100937.67;1766991;79;20494;-64
2022/03/25 04:18:50;;;;;;;;;;;;;;;2.63;70.18;100941.67;1755718;82;20217;-63
2022/03/25 04:22:02;;;;;;;;;;;;;;;2.70;70.27;100938.87;1756341;81;20486;-62
2022/03/25 04:25:06;;;;;;;;;;;;;;;2.71;70.27;100943.33;1764003;80;20209;-63
2022/03/25 04:28:11;;;;;;;;;;;;;;;2.73;70.44;100944.93;1802475;79;20278;-62
2022/03/25 04:31:16;;;;;;;;;;;;;;;2.80;70.69;100943.52;1755020;80;20244;-62
2022/03/25 04:34:20;;;;;;;;;;;;;;;2.91;70.76;100941.36;1773813;81;20246;-64
2022/03/25 04:37:25;;;;;;;;;;;;;;;2.99;70.59;100960.58;1737179;82;20269;-63
2022/03/25 04:40:33;;;;;;;;;;;;;;;3.08;70.62;100960.41;1737051;82;20206;-64
2022/03/25 04:43:37;;;;;;;;;;;;;;;3.15;70.41;100958.95;1737128;82;20526;-61
2022/03/25 04:46:42;;;;;;;;;;;;;;;3.18;70.46;100969.05;1737514;82;20233;-60
2022/03/25 04:49:48;;;;;;;;;;;;;;;3.27;70.66;100976.47;1737031;82;20187;-59
2022/03/25 04:52:54;;;;;;;;;;;;;;;3.38;70.58;100968.92;1737127;82;20218;-60
2022/03/25 04:56:00;;;;;;;;;;;;;;;3.43;70.59;100978.88;1737066;82;20225;-60
2022/03/25 04:59:05;;;;;;;;;;;;;;;3.55;70.65;100980.16;1736967;82;20195;-61
2022/03/25 05:02:12;;;;;;;;;;;;;;;3.66;70.58;100976.66;1737179;82;20241;-59
2022/03/25 05:05:19;;;;;;;;;;;;;;;3.79;70.50;100981.51;1737004;82;20214;-60
2022/03/25 05:08:24;;;;;;;;;;;;;;;3.91;70.32;100985.95;1719779;83;20214;-61
2022/03/25 05:11:30;;;;;;;;;;;;;;;3.99;70.12;100984.39;1737101;79;20262;-61
2022/03/25 05:14:34;;;;;;;;;;;;;;;4.09;69.87;100988.09;1767912;81;20257;-62
2022/03/25 05:17:40;;;;;;;;;;;;;;;4.19;69.63;100989.59;1751118;81;20228;-60
2022/03/25 05:20:46;;;;;;;;;;;;;;;4.29;69.42;101000.08;1768101;81;20210;-60
2022/03/25 05:23:51;;;;;;;;;;;;;;;4.37;69.21;101000.34;1768376;81;20245;-61
2022/03/25 05:26:59;;;;;;;;;;;;;;;4.45;69.07;100993.34;1751385;81;20182;-61
2022/03/25 05:30:02;;;;;;;;;;;;;;;4.51;68.90;100998.75;1782800;78;20238;-60
2022/03/25 05:33:08;;;;;;;;;;;;;;;4.59;68.86;100998.52;1801913;79;20524;-60
2022/03/25 05:36:16;;;;;;;;;;;;;;;4.68;68.71;101005.55;1801716;79;20189;-61
2022/03/25 05:39:16;;;;;;;;;;;;;;;4.76;68.60;101012.58;1801585;80;20245;-60
2022/03/25 05:42:20;;;;;;;;;;;;;;;4.81;68.54;101008.97;1801098;79;20201;-60
2022/03/25 05:45:27;;;;;;;;;;;;;;;4.85;68.53;101015.41;1801695;79;20186;-60
2022/03/25 05:48:31;;;;;;;;;;;;;;;4.88;68.59;101016.99;1801723;79;20218;-60
2022/03/25 05:51:40;;;;;;;;;;;;;;;4.94;68.70;101020.55;1782581;79;20293;-60
2022/03/25 05:54:45;;;;;;;;;;;;;;;4.97;68.64;101024.38;1768386;80;20188;-59
2022/03/25 05:57:52;;;;;;;;;;;;;;;5.04;68.73;101024.25;1767281;81;20263;-60
2022/03/25 06:00:57;;;;;;;;;;;;;;;5.11;68.72;101024.11;1779625;79;20290;-60
2022/03/25 06:04:03;;;;;;;;;;;;;;;5.22;68.72;101027.67;1775395;80;20258;-61
2022/03/25 06:07:07;;;;;;;;;;;;;;;5.34;68.50;101034.83;1777437;79;20543;-60
2022/03/25 06:10:13;;;;;;;;;;;;;;;5.43;68.20;101034.05;1775284;79;20598;-62
2022/03/25 06:13:19;;;;;;;;;;;;;;;5.50;68.05;101035.77;1774598;81;20610;-62
2022/03/25 06:16:30;;;;;;;;;;;;;;;5.61;67.94;101035.22;1774980;81;20297;-62
2022/03/25 06:19:37;;;;;;;;;;;;;;;5.72;67.71;101035.17;1777811;78;20210;-62
2022/03/25 06:22:43;;;;;;;;;;;;;;;5.81;67.30;101041.70;1788232;79;20263;-61
2022/03/25 06:25:51;;;;;;;;;;;;;;;5.88;67.00;101045.67;1775108;79;20262;-62
2022/03/25 06:28:55;;;;;;;;;;;;;;;5.91;66.55;101051.67;1771403;80;20223;-61
2022/03/25 06:32:03;;;;;;;;;;;;;;;5.93;66.26;101054.30;1766761;79;20212;-60
2022/03/25 06:35:10;;;;;;;;;;;;;;;5.98;66.14;101058.33;1805139;79;20215;-60
2022/03/25 06:38:18;;;;;;;;;;;;;;;6.04;66.04;101060.52;1799520;79;20395;-61
2022/03/25 06:41:27;;;;;;;;;;;;;;;6.13;65.95;101056.17;1805080;79;20529;-64
2022/03/25 06:44:32;;;;;;;;;;;;;;;6.17;65.58;101058.97;1799900;79;20605;-60
2022/03/25 06:47:37;;;;;;;;;;;;;;;6.22;65.31;101056.73;1780537;79;20216;-62
2022/03/25 06:50:43;;;;;;;;;;;;;;;6.33;65.12;101063.98;1804850;79;20393;-52
2022/03/25 06:53:48;;;;;;;;;;;;;;;6.38;64.91;101058.50;1805433;79;20895;-51
2022/03/25 06:56:53;;;;;;;;;;;;;;;6.45;64.58;101065.62;1776727;80;20267;-53
2022/03/25 07:00:01;;;;;;;;;;;;;;;6.52;64.55;101073.60;1774097;81;20266;-52
2022/03/25 07:03:07;;;;;;;;;;;;;;;6.61;64.40;101076.91;1774527;81;20218;-52
2022/03/25 07:06:13;;;;;;;;;;;;;;;6.68;64.25;101078.95;1775023;80;20207;-53
2022/03/25 07:09:21;;;;;;;;;;;;;;;6.78;64.27;101083.95;1774749;79;20218;-52
2022/03/25 07:12:26;;;;;;;;;;;;;;;6.88;63.97;101088.93;1758764;80;20210;-52
2022/03/25 07:15:35;;;;;;;;;;;;;;;6.97;63.59;101099.03;1779929;79;20626;-52
2022/03/25 07:18:41;;;;;;;;;;;;;;;6.99;63.46;101106.53;1782501;79;20186;-53
2022/03/25 07:21:47;;;;;;;;;;;;;;;7.09;63.42;101109.31;1775728;80;20288;-53
2022/03/25 07:24:52;;;;;;;;;;;;;;;7.20;63.29;101106.49;1792148;78;20309;-52
2022/03/25 07:28:00;;;;;;;;;;;;;;;7.30;63.01;101106.91;1794424;80;20281;-53
2022/03/25 07:31:05;;;;;;;;;;;;;;;7.38;62.78;101107.09;1791493;79;20272;-52
2022/03/25 07:34:15;;;;;;;;;;;;;;;7.48;62.73;101114.78;1775001;80;20571;-52
2022/03/25 07:37:35;;;;;;;;;;;;;;;7.63;62.47;101117.14;1802254;79;20269;-53
2022/03/25 07:40:40;;;;;;;;;;;;;;;7.73;62.23;101108.47;1761401;79;20213;-52
2022/03/25 07:43:46;;;;;;;;;;;;;;;7.83;61.97;101114.32;1796001;79;20461;-53
2022/03/25 07:46:51;;;;;;;;;;;;;;;7.93;61.74;101115.18;1783191;80;20279;-53
2022/03/25 07:49:52;;;;;;;;;;;;;;;8.04;61.40;101121.86;1784976;79;20527;-52
2022/03/25 07:52:49;;;;;;;;;;;;;;;8.16;61.11;101123.48;1813011;79;20544;-53
2022/03/25 07:55:59;;;;;;;;;;;;;;;8.27;60.67;101130.19;1805728;79;20277;-53
2022/03/25 07:59:08;;;;;;;;;;;;;;;8.36;60.24;101127.09;1804206;79;20201;-55
2022/03/25 08:02:14;;;;;;;;;;;;;;;8.45;59.79;101131.70;1775116;79;20209;-53
2022/03/25 08:05:24;;;;;;;;;;;;;;;8.53;59.79;101133.20;1797207;79;20272;-53
2022/03/25 08:08:36;;;;;;;;;;;;;;;8.61;59.71;101131.45;1802100;79;20197;-53
2022/03/25 08:11:42;;;;;;;;;;;;;;;8.67;59.10;101131.39;1781699;79;20331;-53
2022/03/25 08:14:55;;;;;;;;;;;;;;;8.64;58.54;101127.07;1817178;79;20585;-54
2022/03/25 08:18:06;;;;;;;;;;;;;;;8.60;58.47;101130.24;1817458;79;20814;-55
2022/03/25 08:21:17;;;;;;;;;;;;;;;8.68;58.81;101134.47;1806282;79;20220;-53
2022/03/25 08:27:49;;;;;;;;;;;;;;;8.91;58.59;101135.89;1806683;79;20267;-53
2022/03/25 08:30:55;;;;;;;;;;;;;;;9.04;59.10;101124.98;1800560;79;20210;-53
2022/03/25 08:34:01;;;;;;;;;;;;;;;9.16;58.68;101133.88;1791675;79;20277;-55
2022/03/25 08:37:06;;;;;;;;;;;;;;;9.26;58.17;101132.48;1796390;78;20289;-53
2022/03/25 08:40:16;;;;;;;;;;;;;;;9.35;57.56;101132.45;1772901;80;20282;-55
2022/03/25 08:43:23;;;;;;;;;;;;;;;9.45;57.32;101129.14;1772291;80;20570;-54
2022/03/25 08:46:32;;;;;;;;;;;;;;;9.57;57.09;101125.72;1772297;79;20230;-61
2022/03/25 08:49:39;;;;;;;;;;;;;;;9.69;56.76;101128.63;1781763;79;20567;-62
2022/03/25 08:52:45;;;;;;;;;;;;;;;9.81;56.31;101135.10;1774145;79;20579;-63
2022/03/25 08:55:50;;;;;;;;;;;;;;;9.88;55.94;101127.12;1795594;79;20234;-63
2022/03/25 08:58:55;;;;;;;;;;;;;;;9.95;55.58;101129.11;1772164;79;20275;-65
2022/03/25 09:02:02;;;;;;;;;;;;;;;10.03;55.37;101126.47;1776013;78;20594;-61
2022/03/25 09:05:08;;;;;;;;;;;;;;;10.11;54.73;101126.59;1771044;81;20254;-63
2022/03/25 09:08:15;;;;;;;;;;;;;;;10.18;54.64;101129.04;1766510;81;20232;-64
2022/03/25 09:11:28;;;;;;;;;;;;;;;10.27;54.26;101122.66;1765716;81;20204;-60
2022/03/25 09:14:38;;;;;;;;;;;;;;;10.37;53.76;101123.92;1749734;80;20743;-62
2022/03/25 09:17:53;;;;;;;;;;;;;;;10.45;53.31;101120.77;1771322;80;20218;-64
2022/03/25 09:20:59;;;;;;;;;;;;;;;10.55;53.22;101113.33;1776545;79;20617;-64
2022/03/25 09:24:20;;;;;;;;;;;;;;;10.66;53.07;101108.11;1781700;79;20273;-62
2022/03/25 09:27:28;;;;;;;;;;;;;;;10.78;52.62;101111.47;1792418;79;20219;-61
2022/03/25 09:30:32;;;;;;;;;;;;;;;10.86;51.98;101112.89;1771041;81;20215;-63
2022/03/25 09:33:38;;;;;;;;;;;;;;;10.97;51.42;101119.48;1771785;80;20628;-63
2022/03/25 09:36:45;;;;;;;;;;;;;;;11.03;50.95;101109.24;1775047;81;20218;-62
2022/03/25 09:39:52;;;;;;;;;;;;;;;11.10;50.71;101118.55;1774671;79;20214;-63
2022/03/25 09:43:02;;;;;;;;;;;;;;;11.15;50.56;101124.38;1773920;79;20216;-62
2022/03/25 09:46:12;;;;;;;;;;;;;;;11.21;50.38;101118.28;1775270;80;20210;-63
2022/03/25 09:49:20;;;;;;;;;;;;;;;11.28;49.62;101131.66;1773904;79;20811;-62
2022/03/25 09:52:36;;;;;;;;;;;;;;;11.27;49.44;101118.99;1789097;79;20583;-53
2022/03/25 09:55:54;;;;;;;;;;;;;;;11.34;49.39;101131.02;1795187;79;20209;-62
2022/03/25 09:59:00;;;;;;;;;;;;;;;11.43;49.19;101120.46;1776460;78;20218;-64
2022/03/25 10:02:10;;;;;;;;;;;;;;;11.52;48.93;101129.06;1780992;79;20208;-64
2022/03/25 10:05:30;;;;;;;;;;;;;;;11.64;48.59;101135.50;1792279;79;20547;-64
2022/03/25 10:08:42;;;;;;;;;;;;;;;11.75;48.16;101129.72;1793818;80;20209;-66
2022/03/25 10:11:49;;;;;;;;;;;;;;;11.81;47.56;101129.59;1769319;81;20503;-64
2022/03/25 10:14:57;;;;;;;;;;;;;;;11.90;47.34;101123.96;1796142;79;20229;-65
2022/03/25 10:18:09;;;;;;;;;;;;;;;12.02;47.07;101125.86;1798440;79;20603;-63
2022/03/25 10:21:13;;;;;;;;;;;;;;;12.16;46.49;101125.75;1804679;79;20217;-64
2022/03/25 10:24:19;;;;;;;;;;;;;;;12.25;45.04;101126.10;1804888;79;20221;-63
2022/03/25 10:27:31;;;;;;;;;;;;;;;12.32;44.46;101126.62;1805589;79;20197;-63
2022/03/25 10:30:44;;;;;;;;;;;;;;;12.46;43.56;101121.86;1784697;79;20233;-62
2022/03/25 10:34:02;;;;;;;;;;;;;;;12.62;43.47;101120.47;1764224;81;20225;-60
2022/03/25 10:37:12;;;;;;;;;;;;;;;12.77;42.29;101122.89;1802257;79;20322;-61
2022/03/25 10:40:21;;;;;;;;;;;;;;;12.87;41.91;101121.34;1798898;79;20277;-61
2022/03/25 10:43:27;;;;;;;;;;;;;;;13.01;42.08;101117.42;1803212;79;20218;-60
2022/03/25 10:46:42;;;;;;;;;;;;;;;13.13;40.85;101111.89;1815607;78;20258;-60
2022/03/25 10:49:50;;;;;;;;;;;;;;;13.15;40.28;101107.09;1825579;78;20268;-61
2022/03/25 10:52:55;;;;;;;;;;;;;;;13.29;39.67;101109.12;1820906;78;20239;-59
2022/03/25 10:56:14;;;;;;;;;;;;;;;13.41;37.66;101103.57;1822982;78;20590;-61
2022/03/25 10:59:17;;;;;;;;;;;;;;;13.47;36.95;101100.14;1810206;78;20213;-61
2022/03/25 11:02:24;;;;;;;;;;;;;;;13.57;36.41;101101.81;1806149;78;20600;-61
2022/03/25 11:05:30;;;;;;;;;;;;;;;13.74;36.15;101099.33;1827867;78;20253;-57
2022/03/25 11:08:38;;;;;;;;;;;;;;;13.94;35.52;101098.71;1785736;79;20213;-58
2022/03/25 11:11:45;;;;;;;;;;;;;;;14.04;34.68;101102.62;1802294;79;20205;-57
2022/03/25 11:14:52;;;;;;;;;;;;;;;14.12;34.25;101103.95;1808914;78;20193;-56
2022/03/25 11:18:01;;;;;;;;;;;;;;;14.21;33.78;101098.72;1816289;78;20251;-50
2022/03/25 11:21:11;;;;;;;;;;;;;;;14.35;33.62;101096.62;1790172;78;20208;-54
2022/03/25 11:24:31;;;;;;;;;;;;;;;14.55;32.93;101096.46;1802861;79;20641;-55
2022/03/25 11:27:38;;;;;;;;;;;;;;;14.75;32.92;101096.28;1808968;77;20811;-54
2022/03/25 11:30:45;;;;;;;;;;;;;;;14.97;31.51;101092.63;1834778;78;20399;-54
2022/03/25 11:34:22;;;;;;;;;;;;;;;15.03;29.65;101093.80;1835276;78;20211;-58
2022/03/25 11:37:32;;;;;;;;;;;;;;;15.07;29.96;101090.98;1840253;76;20199;-54
2022/03/25 11:40:40;;;;;;;;;;;;;;;15.24;29.61;101079.60;1842281;78;20593;-53
2022/03/25 11:43:46;;;;;;;;;;;;;;;15.32;28.16;101085.03;1843220;78;20286;-54
2022/03/25 11:47:10;;;;;;;;;;;;;;;15.36;28.22;101085.00;1841530;78;20651;-56
2022/03/25 11:50:36;;;;;;;;;;;;;;;15.48;27.86;101079.36;1810565;78;20228;-56
2022/03/25 11:53:49;;;;;;;;;;;;;;;15.52;27.56;101079.33;1810790;78;20280;-57
2022/03/25 11:56:56;;;;;;;;;;;;;;;15.54;27.26;101079.97;1810079;77;20203;-57
2022/03/25 12:00:06;;;;;;;;;;;;;;;15.53;26.83;101086.55;1825332;76;20544;-54
2022/03/25 12:03:14;;;;;;;;;;;;;;;15.45;26.82;101079.75;1825202;78;20568;-55
2022/03/25 12:06:25;;;;;;;;;;;;;;;15.51;27.02;101081.73;1816735;78;20210;-57
2022/03/25 12:09:34;;;;;;;;;;;;;;;15.67;26.84;101083.44;1809306;79;20277;-54
2022/03/25 12:13:12;;;;;;;;;;;;;;;15.74;26.37;101081.64;1837946;78;20266;-56
2022/03/25 12:16:56;;;;;;;;;;;;;;;15.77;25.84;101081.25;1818563;76;20225;-54
2022/03/25 12:20:09;;;;;;;;;;;;;;;15.59;25.50;101078.89;1820791;78;20697;-54
2022/03/25 12:23:28;;;;;;;;;;;;;;;15.56;25.33;101076.52;1838595;78;20207;-54
2022/03/25 12:26:43;;;;;;;;;;;;;;;15.55;25.43;101072.56;1842276;78;20302;-55
2022/03/25 12:29:52;;;;;;;;;;;;;;;15.66;25.67;101074.33;1844199;77;20207;-53
2022/03/25 12:33:07;;;;;;;;;;;;;;;15.74;25.55;101070.59;1834441;78;20266;-54
2022/03/25 12:36:14;;;;;;;;;;;;;;;15.81;25.16;101077.91;1829064;78;20662;-55
2022/03/25 12:39:23;;;;;;;;;;;;;;;15.89;25.27;101075.04;1799274;79;20245;-54
2022/03/25 12:42:31;;;;;;;;;;;;;;;15.93;25.20;101074.13;1801989;79;20232;-54
2022/03/25 12:45:56;;;;;;;;;;;;;;;15.95;25.26;101075.64;1791470;79;20260;-55
2022/03/25 12:49:14;;;;;;;;;;;;;;;16.04;24.91;101080.02;1800092;79;20209;-55
2022/03/25 12:52:23;;;;;;;;;;;;;;;15.99;24.89;101082.50;1796051;79;20573;-55
2022/03/25 12:55:39;;;;;;;;;;;;;;;16.03;24.49;101082.98;1806652;79;20703;-54
2022/03/25 12:58:46;;;;;;;;;;;;;;;16.11;24.46;101076.80;1807948;79;20557;-54
2022/03/25 13:01:59;;;;;;;;;;;;;;;16.21;24.29;101078.73;1808050;79;20204;-54
2022/03/25 13:05:14;;;;;;;;;;;;;;;16.33;24.42;101084.61;1808871;79;20245;-53
2022/03/25 13:08:19;;;;;;;;;;;;;;;16.43;24.10;101076.31;1807613;78;20544;-55
2022/03/25 13:11:23;;;;;;;;;;;;;;;16.53;23.67;101074.64;1807876;79;20209;-57
2022/03/25 13:14:38;;;;;;;;;;;;;;;16.60;23.47;101073.32;1804816;79;20269;-53
2022/03/25 13:17:47;;;;;;;;;;;;;;;16.62;23.37;101070.67;1793421;78;20263;-53
2022/03/25 13:20:57;;;;;;;;;;;;;;;16.60;22.69;101073.32;1798499;79;20213;-54
2022/03/25 13:24:08;;;;;;;;;;;;;;;16.41;22.67;101070.12;1827741;78;20316;-58
2022/03/25 13:27:22;;;;;;;;;;;;;;;16.27;22.50;101072.41;1803811;79;20201;-54
2022/03/25 13:30:28;;;;;;;;;;;;;;;16.26;22.51;101070.72;1808817;79;20568;-54
2022/03/25 13:33:38;;;;;;;;;;;;;;;16.25;22.06;101075.89;1803316;79;20550;-54
2022/03/25 13:36:44;;;;;;;;;;;;;;;16.15;21.90;101071.23;1804285;79;20209;-54
2022/03/25 13:39:50;;;;;;;;;;;;;;;16.16;23.35;101070.67;1806066;78;20207;-54
2022/03/25 13:42:57;;;;;;;;;;;;;;;16.31;22.87;101068.73;1800762;78;20199;-54
2022/03/25 13:46:09;;;;;;;;;;;;;;;16.43;22.13;101072.16;1811017;77;20503;-54
2022/03/25 13:49:21;;;;;;;;;;;;;;;16.47;22.17;101070.42;1793731;77;20292;-58
2022/03/25 13:52:34;;;;;;;;;;;;;;;16.56;22.17;101071.47;1784324;79;20242;-54
2022/03/25 13:55:51;;;;;;;;;;;;;;;16.67;21.89;101068.69;1807630;79;20584;-67
2022/03/25 13:59:01;;;;;;;;;;;;;;;16.71;21.81;101068.64;1807246;79;20211;-56
2022/03/25 14:02:09;;;;;;;;;;;;;;;16.78;22.07;101067.64;1811090;77;20266;-54
2022/03/25 14:05:23;;;;;;;;;;;;;;;16.83;21.65;101070.66;1849192;77;20445;-65
2022/03/25 14:08:41;;;;;;;;;;;;;;;16.75;21.68;101067.17;1848781;77;20245;-67
2022/03/25 14:11:47;;;;;;;;;;;;;;;16.57;22.00;101068.19;1796990;77;20254;-67
2022/03/25 14:15:12;;;;;;;;;;;;;;;16.64;22.32;101070.48;1780158;79;20209;-66
2022/03/25 14:18:26;;;;;;;;;;;;;;;16.57;21.68;101070.95;1776135;81;20213;-67
2022/03/25 14:21:54;;;;;;;;;;;;;;;16.42;22.12;101073.75;1798918;77;20326;-67
2022/03/25 14:24:48;;;;;;;;;;;;;;;16.43;22.30;101065.25;1808299;79;20357;-69
2022/03/25 14:27:46;;;;;;;;;;;;;;;16.49;22.46;101062.80;1808169;79;20199;-70
2022/03/25 14:31:04;;;;;;;;;;;;;;;16.57;23.04;101068.19;1738638;82;20207;-68
2022/03/25 14:34:09;;;;;;;;;;;;;;;16.55;23.07;101070.29;1752826;82;20208;-63
2022/03/25 14:37:23;;;;;;;;;;;;;;;16.48;22.97;101074.88;1730829;81;20514;-64
2022/03/25 14:40:27;;;;;;;;;;;;;;;16.33;23.17;101078.53;1759333;80;20299;-63
2022/03/25 14:43:31;;;;;;;;;;;;;;;16.29;23.53;101071.70;1782649;79;20551;-65
2022/03/25 14:46:38;;;;;;;;;;;;;;;16.33;24.20;101075.77;1762826;78;20205;-63
2022/03/25 14:49:44;;;;;;;;;;;;;;;16.31;23.75;101082.05;1772467;80;20206;-65
2022/03/25 14:52:53;;;;;;;;;;;;;;;16.24;23.68;101078.33;1775250;79;20246;-64
2022/03/25 14:56:02;;;;;;;;;;;;;;;16.22;23.79;101080.43;1764836;81;20242;-63
2022/03/25 14:59:09;;;;;;;;;;;;;;;16.22;23.62;101076.28;1766637;81;20305;-64
2022/03/25 15:02:18;;;;;;;;;;;;;;;15.95;23.95;101077.56;1758202;80;20229;-64
2022/03/25 15:05:23;;;;;;;;;;;;;;;15.66;24.26;101081.22;1766120;81;20216;-63
2022/03/25 15:08:29;;;;;;;;;;;;;;;15.52;24.75;101077.95;1766177;81;20208;-64
2022/03/25 15:11:37;;;;;;;;;;;;;;;15.54;25.07;101077.22;1765485;81;20216;-64
2022/03/25 15:14:44;;;;;;;;;;;;;;;15.61;25.30;101082.83;1759058;81;20208;-64
2022/03/25 15:17:49;;;;;;;;;;;;;;;15.78;25.55;101083.81;1765987;81;20674;-64
2022/03/25 15:20:56;;;;;;;;;;;;;;;15.96;25.18;101084.27;1766081;81;20250;-65
2022/03/25 15:24:06;;;;;;;;;;;;;;;15.85;25.61;101086.66;1766390;81;20809;-63
2022/03/25 15:27:18;;;;;;;;;;;;;;;15.71;26.41;101088.92;1750006;81;20199;-59
2022/03/25 15:37:16;;;;;;;;;;;;;;;15.19;27.35;101090.34;1766369;81;20208;-62
2022/03/25 15:40:27;;;;;;;;;;;;;;;15.09;27.57;101089.78;1768776;80;20650;-64
2022/03/25 15:43:34;;;;;;;;;;;;;;;14.90;28.01;101095.82;1804506;79;20243;-64
2022/03/25 15:46:38;;;;;;;;;;;;;;;14.58;28.65;101090.58;1747761;79;20206;-63
2022/03/25 15:49:45;;;;;;;;;;;;;;;14.26;29.02;101093.56;1759427;81;20210;-62
2022/03/25 15:52:52;;;;;;;;;;;;;;;13.95;29.36;101102.33;1755636;81;20289;-63
2022/03/25 15:56:03;;;;;;;;;;;;;;;13.67;30.00;101103.31;1803511;79;20229;-63
2022/03/25 15:59:08;;;;;;;;;;;;;;;13.41;30.86;101108.23;1805568;79;20263;-63
2022/03/25 16:02:14;;;;;;;;;;;;;;;13.14;31.30;101115.01;1805931;79;20533;-63
2022/03/25 16:05:20;;;;;;;;;;;;;;;12.91;31.56;101113.95;1805902;79;20608;-62
2022/03/25 16:08:25;;;;;;;;;;;;;;;12.67;32.04;101111.21;1805510;79;20248;-63
2022/03/25 16:11:31;;;;;;;;;;;;;;;12.44;32.60;101105.20;1786959;79;20211;-64
2022/03/25 16:14:38;;;;;;;;;;;;;;;12.19;33.32;101108.44;1773303;81;20262;-62
2022/03/25 16:17:41;;;;;;;;;;;;;;;11.95;33.60;101106.49;1779250;79;20215;-63
2022/03/25 16:20:46;;;;;;;;;;;;;;;11.72;34.39;101108.61;1773604;81;20210;-62
2022/03/25 16:23:50;;;;;;;;;;;;;;;11.51;35.21;101115.02;1757914;79;20254;-63